sensor_id;sensor_type;location;lat;lon;timestamp;P1;durP1;ratioP1;P2;durP2;ratioP2
68614;SDS011;55593;51.994;5.882;2024-03-02T00:01:48;4.75;;;2.08;;
68614;SDS011;55593;51.994;5.882;2024-03-02T00:04:17;4.35;;;1.85;;
68614;SDS011;55593;51.994;5.882;2024-03-02T00:06:47;4.07;;;2.00;;
68614;SDS011;55593;51.994;5.882;2024-03-02T00:09:16;3.40;;;1.77;;
68614;SDS011;55593;51.994;5.882;2024-03-02T00:11:51;4.75;;;1.70;;
68614;SDS011;55593;51.994;5.882;2024-03-02T00:14:21;4.20;;;1.88;;
68614;SDS011;55593;51.994;5.882;2024-03-02T00:16:52;4.00;;;1.90;;
68614;SDS011;55593;51.994;5.882;2024-03-02T00:19:24;3.67;;;1.77;;
68614;SDS011;55593;51.994;5.882;2024-03-02T00:21:53;6.45;;;2.10;;
68614;SDS011;55593;51.994;5.882;2024-03-02T00:24:25;3.17;;;1.67;;
68614;SDS011;55593;51.994;5.882;2024-03-02T00:27:05;4.38;;;1.90;;
68614;SDS011;55593;51.994;5.882;2024-03-02T00:29:38;4.70;;;2.28;;
68614;SDS011;55593;51.994;5.882;2024-03-02T00:32:09;4.18;;;2.00;;
68614;SDS011;55593;51.994;5.882;2024-03-02T00:34:44;4.57;;;2.00;;
68614;SDS011;55593;51.994;5.882;2024-03-02T00:37:13;4.35;;;2.00;;
68614;SDS011;55593;51.994;5.882;2024-03-02T00:39:42;5.03;;;2.05;;
68614;SDS011;55593;51.994;5.882;2024-03-02T00:42:14;4.05;;;2.00;;
68614;SDS011;55593;51.994;5.882;2024-03-02T00:44:43;5.50;;;2.05;;
68614;SDS011;55593;51.994;5.882;2024-03-02T00:47:13;3.70;;;1.70;;
68614;SDS011;55593;51.994;5.882;2024-03-02T00:49:43;6.07;;;2.17;;
68614;SDS011;55593;51.994;5.882;2024-03-02T00:52:16;5.35;;;1.92;;
68614;SDS011;55593;51.994;5.882;2024-03-02T00:54:45;9.00;;;2.10;;
68614;SDS011;55593;51.994;5.882;2024-03-02T00:57:18;6.20;;;2.40;;
68614;SDS011;55593;51.994;5.882;2024-03-02T00:59:48;3.78;;;1.92;;
68614;SDS011;55593;51.994;5.882;2024-03-02T01:02:21;6.38;;;2.15;;
68614;SDS011;55593;51.994;5.882;2024-03-02T01:04:51;4.15;;;1.90;;
68614;SDS011;55593;51.994;5.882;2024-03-02T01:07:22;4.25;;;1.80;;
68614;SDS011;55593;51.994;5.882;2024-03-02T01:09:51;5.53;;;1.95;;
68614;SDS011;55593;51.994;5.882;2024-03-02T01:12:24;4.22;;;2.10;;
68614;SDS011;55593;51.994;5.882;2024-03-02T01:15:01;4.47;;;2.08;;
68614;SDS011;55593;51.994;5.882;2024-03-02T01:17:35;5.53;;;2.50;;
68614;SDS011;55593;51.994;5.882;2024-03-02T01:20:07;5.82;;;2.10;;
68614;SDS011;55593;51.994;5.882;2024-03-02T01:22:36;6.90;;;2.00;;
68614;SDS011;55593;51.994;5.882;2024-03-02T01:25:06;3.85;;;1.90;;
68614;SDS011;55593;51.994;5.882;2024-03-02T01:27:41;3.28;;;1.60;;
68614;SDS011;55593;51.994;5.882;2024-03-02T01:30:11;5.75;;;1.80;;
68614;SDS011;55593;51.994;5.882;2024-03-02T01:32:41;3.88;;;1.70;;
68614;SDS011;55593;51.994;5.882;2024-03-02T01:35:14;5.60;;;1.27;;
68614;SDS011;55593;51.994;5.882;2024-03-02T01:37:52;2.78;;;1.45;;
68614;SDS011;55593;51.994;5.882;2024-03-02T01:40:24;3.95;;;1.50;;
68614;SDS011;55593;51.994;5.882;2024-03-02T01:43:06;2.70;;;1.40;;
68614;SDS011;55593;51.994;5.882;2024-03-02T01:45:38;2.08;;;1.00;;
68614;SDS011;55593;51.994;5.882;2024-03-02T01:48:10;3.08;;;1.00;;
68614;SDS011;55593;51.994;5.882;2024-03-02T01:50:42;2.95;;;1.15;;
68614;SDS011;55593;51.994;5.882;2024-03-02T01:53:14;2.30;;;1.10;;
68614;SDS011;55593;51.994;5.882;2024-03-02T01:55:48;2.40;;;0.90;;
68614;SDS011;55593;51.994;5.882;2024-03-02T01:58:28;1.50;;;0.90;;
68614;SDS011;55593;51.994;5.882;2024-03-02T02:00:58;1.50;;;0.85;;
68614;SDS011;55593;51.994;5.882;2024-03-02T02:03:31;1.55;;;0.90;;
68614;SDS011;55593;51.994;5.882;2024-03-02T02:08:57;3.50;;;0.90;;
68614;SDS011;55593;51.994;5.882;2024-03-02T02:11:42;1.45;;;0.80;;
68614;SDS011;55593;51.994;5.882;2024-03-02T02:14:18;2.10;;;0.85;;
68614;SDS011;55593;51.994;5.882;2024-03-02T02:16:50;1.00;;;0.70;;
68614;SDS011;55593;51.994;5.882;2024-03-02T02:19:23;1.38;;;0.80;;
68614;SDS011;55593;51.994;5.882;2024-03-02T02:21:59;3.15;;;1.38;;
68614;SDS011;55593;51.994;5.882;2024-03-02T02:24:37;1.35;;;0.80;;
68614;SDS011;55593;51.994;5.882;2024-03-02T02:27:12;3.17;;;0.88;;
68614;SDS011;55593;51.994;5.882;2024-03-02T02:29:57;0.82;;;0.60;;
68614;SDS011;55593;51.994;5.882;2024-03-02T02:32:30;0.70;;;0.63;;
68614;SDS011;55593;51.994;5.882;2024-03-02T02:35:01;1.40;;;0.77;;
68614;SDS011;55593;51.994;5.882;2024-03-02T02:37:37;1.00;;;0.60;;
68614;SDS011;55593;51.994;5.882;2024-03-02T02:40:11;1.70;;;0.80;;
68614;SDS011;55593;51.994;5.882;2024-03-02T02:42:56;1.95;;;0.88;;
68614;SDS011;55593;51.994;5.882;2024-03-02T02:45:28;1.33;;;0.80;;
68614;SDS011;55593;51.994;5.882;2024-03-02T02:48:08;2.25;;;0.77;;
68614;SDS011;55593;51.994;5.882;2024-03-02T02:50:49;1.20;;;0.80;;
68614;SDS011;55593;51.994;5.882;2024-03-02T02:53:37;1.42;;;0.80;;
68614;SDS011;55593;51.994;5.882;2024-03-02T02:56:14;1.13;;;0.60;;
68614;SDS011;55593;51.994;5.882;2024-03-02T02:58:50;1.90;;;0.73;;
68614;SDS011;55593;51.994;5.882;2024-03-02T03:01:20;1.50;;;0.90;;
68614;SDS011;55593;51.994;5.882;2024-03-02T03:03:51;1.15;;;0.70;;
68614;SDS011;55593;51.994;5.882;2024-03-02T03:06:32;1.40;;;0.80;;
68614;SDS011;55593;51.994;5.882;2024-03-02T03:09:06;3.92;;;1.15;;
68614;SDS011;55593;51.994;5.882;2024-03-02T03:11:56;0.90;;;0.70;;
68614;SDS011;55593;51.994;5.882;2024-03-02T03:14:29;3.30;;;0.98;;
68614;SDS011;55593;51.994;5.882;2024-03-02T03:17:08;2.58;;;0.73;;
68614;SDS011;55593;51.994;5.882;2024-03-02T03:19:49;1.52;;;0.70;;
68614;SDS011;55593;51.994;5.882;2024-03-02T03:22:26;5.93;;;1.00;;
68614;SDS011;55593;51.994;5.882;2024-03-02T03:25:05;1.45;;;0.90;;
68614;SDS011;55593;51.994;5.882;2024-03-02T03:27:37;1.55;;;1.00;;
68614;SDS011;55593;51.994;5.882;2024-03-02T03:30:41;2.58;;;0.80;;
68614;SDS011;55593;51.994;5.882;2024-03-02T03:33:13;1.20;;;0.70;;
68614;SDS011;55593;51.994;5.882;2024-03-02T03:35:44;1.40;;;0.70;;
68614;SDS011;55593;51.994;5.882;2024-03-02T03:38:15;2.45;;;0.80;;
68614;SDS011;55593;51.994;5.882;2024-03-02T03:40:47;1.90;;;0.90;;
68614;SDS011;55593;51.994;5.882;2024-03-02T03:43:22;1.15;;;0.70;;
68614;SDS011;55593;51.994;5.882;2024-03-02T03:45:55;1.35;;;0.70;;
68614;SDS011;55593;51.994;5.882;2024-03-02T03:48:33;1.10;;;0.70;;
68614;SDS011;55593;51.994;5.882;2024-03-02T03:51:07;1.25;;;0.80;;
68614;SDS011;55593;51.994;5.882;2024-03-02T03:53:40;1.52;;;0.70;;
68614;SDS011;55593;51.994;5.882;2024-03-02T03:56:12;1.00;;;0.77;;
68614;SDS011;55593;51.994;5.882;2024-03-02T03:58:47;2.47;;;0.80;;
68614;SDS011;55593;51.994;5.882;2024-03-02T04:01:18;2.72;;;0.90;;
68614;SDS011;55593;51.994;5.882;2024-03-02T04:03:55;4.20;;;0.88;;
68614;SDS011;55593;51.994;5.882;2024-03-02T04:06:28;2.05;;;0.80;;
68614;SDS011;55593;51.994;5.882;2024-03-02T04:09:04;1.08;;;0.70;;
68614;SDS011;55593;51.994;5.882;2024-03-02T04:11:43;1.30;;;0.75;;
68614;SDS011;55593;51.994;5.882;2024-03-02T04:14:14;2.42;;;0.90;;
68614;SDS011;55593;51.994;5.882;2024-03-02T04:17:04;6.38;;;1.00;;
68614;SDS011;55593;51.994;5.882;2024-03-02T04:19:57;3.30;;;1.00;;
68614;SDS011;55593;51.994;5.882;2024-03-02T04:22:40;4.80;;;1.10;;
68614;SDS011;55593;51.994;5.882;2024-03-02T04:25:12;1.30;;;0.82;;
68614;SDS011;55593;51.994;5.882;2024-03-02T04:27:57;4.15;;;0.90;;
68614;SDS011;55593;51.994;5.882;2024-03-02T04:30:28;1.30;;;0.75;;
68614;SDS011;55593;51.994;5.882;2024-03-02T04:33:10;2.30;;;0.85;;
68614;SDS011;55593;51.994;5.882;2024-03-02T04:35:49;3.13;;;0.90;;
68614;SDS011;55593;51.994;5.882;2024-03-02T04:38:21;2.25;;;1.00;;
68614;SDS011;55593;51.994;5.882;2024-03-02T04:40:55;2.13;;;0.98;;
68614;SDS011;55593;51.994;5.882;2024-03-02T04:43:28;1.50;;;0.93;;
68614;SDS011;55593;51.994;5.882;2024-03-02T04:45:59;2.40;;;1.00;;
68614;SDS011;55593;51.994;5.882;2024-03-02T04:48:34;1.77;;;0.93;;
68614;SDS011;55593;51.994;5.882;2024-03-02T04:51:21;1.60;;;0.90;;
68614;SDS011;55593;51.994;5.882;2024-03-02T04:53:58;1.15;;;0.75;;
68614;SDS011;55593;51.994;5.882;2024-03-02T04:56:30;1.77;;;0.80;;
68614;SDS011;55593;51.994;5.882;2024-03-02T04:59:19;1.77;;;0.80;;
68614;SDS011;55593;51.994;5.882;2024-03-02T05:01:51;2.03;;;0.95;;
68614;SDS011;55593;51.994;5.882;2024-03-02T05:04:22;1.65;;;0.90;;
68614;SDS011;55593;51.994;5.882;2024-03-02T05:07:01;1.90;;;0.88;;
68614;SDS011;55593;51.994;5.882;2024-03-02T05:09:33;0.77;;;0.63;;
68614;SDS011;55593;51.994;5.882;2024-03-02T05:12:12;6.03;;;1.00;;
68614;SDS011;55593;51.994;5.882;2024-03-02T05:15:21;2.47;;;1.00;;
68614;SDS011;55593;51.994;5.882;2024-03-02T05:17:58;2.40;;;0.90;;
68614;SDS011;55593;51.994;5.882;2024-03-02T05:20:31;2.08;;;1.00;;
68614;SDS011;55593;51.994;5.882;2024-03-02T05:23:03;1.33;;;0.85;;
68614;SDS011;55593;51.994;5.882;2024-03-02T05:25:41;1.85;;;0.80;;
68614;SDS011;55593;51.994;5.882;2024-03-02T05:30:47;1.20;;;0.80;;
68614;SDS011;55593;51.994;5.882;2024-03-02T05:33:18;3.65;;;0.90;;
68614;SDS011;55593;51.994;5.882;2024-03-02T05:35:49;3.10;;;0.90;;
68614;SDS011;55593;51.994;5.882;2024-03-02T05:38:21;2.53;;;1.00;;
68614;SDS011;55593;51.994;5.882;2024-03-02T05:40:53;3.75;;;0.80;;
68614;SDS011;55593;51.994;5.882;2024-03-02T05:43:24;2.20;;;1.38;;
68614;SDS011;55593;51.994;5.882;2024-03-02T05:46:05;2.72;;;0.80;;
68614;SDS011;55593;51.994;5.882;2024-03-02T05:48:36;2.95;;;0.90;;
68614;SDS011;55593;51.994;5.882;2024-03-02T05:51:05;2.00;;;0.85;;
68614;SDS011;55593;51.994;5.882;2024-03-02T05:53:36;6.20;;;1.63;;
68614;SDS011;55593;51.994;5.882;2024-03-02T05:56:08;3.72;;;0.98;;
68614;SDS011;55593;51.994;5.882;2024-03-02T05:58:43;1.88;;;1.00;;
68614;SDS011;55593;51.994;5.882;2024-03-02T06:01:31;3.08;;;0.90;;
68614;SDS011;55593;51.994;5.882;2024-03-02T06:04:01;4.63;;;0.98;;
68614;SDS011;55593;51.994;5.882;2024-03-02T06:06:32;6.07;;;0.98;;
68614;SDS011;55593;51.994;5.882;2024-03-02T06:09:02;4.35;;;1.10;;
68614;SDS011;55593;51.994;5.882;2024-03-02T06:11:33;2.03;;;0.85;;
68614;SDS011;55593;51.994;5.882;2024-03-02T06:14:06;1.98;;;0.85;;
68614;SDS011;55593;51.994;5.882;2024-03-02T06:16:40;2.38;;;1.00;;
68614;SDS011;55593;51.994;5.882;2024-03-02T06:19:09;1.58;;;0.80;;
68614;SDS011;55593;51.994;5.882;2024-03-02T06:21:41;2.50;;;1.02;;
68614;SDS011;55593;51.994;5.882;2024-03-02T06:24:19;4.43;;;1.95;;
68614;SDS011;55593;51.994;5.882;2024-03-02T06:26:50;1.30;;;0.90;;
68614;SDS011;55593;51.994;5.882;2024-03-02T06:29:19;2.90;;;0.85;;
68614;SDS011;55593;51.994;5.882;2024-03-02T06:31:51;1.92;;;0.80;;
68614;SDS011;55593;51.994;5.882;2024-03-02T06:34:21;5.38;;;0.85;;
68614;SDS011;55593;51.994;5.882;2024-03-02T06:39:35;1.60;;;0.90;;
68614;SDS011;55593;51.994;5.882;2024-03-02T06:42:12;3.92;;;1.08;;
68614;SDS011;55593;51.994;5.882;2024-03-02T06:44:42;2.13;;;1.00;;
68614;SDS011;55593;51.994;5.882;2024-03-02T06:47:15;4.13;;;1.00;;
68614;SDS011;55593;51.994;5.882;2024-03-02T06:49:46;2.47;;;0.82;;
68614;SDS011;55593;51.994;5.882;2024-03-02T06:52:17;2.03;;;0.95;;
68614;SDS011;55593;51.994;5.882;2024-03-02T06:54:46;4.72;;;1.20;;
68614;SDS011;55593;51.994;5.882;2024-03-02T06:57:15;2.45;;;1.00;;
68614;SDS011;55593;51.994;5.882;2024-03-02T06:59:46;4.20;;;1.10;;
68614;SDS011;55593;51.994;5.882;2024-03-02T07:02:19;4.05;;;1.20;;
68614;SDS011;55593;51.994;5.882;2024-03-02T07:04:49;2.25;;;0.88;;
68614;SDS011;55593;51.994;5.882;2024-03-02T07:07:18;4.25;;;1.10;;
68614;SDS011;55593;51.994;5.882;2024-03-02T07:09:47;4.20;;;0.90;;
68614;SDS011;55593;51.994;5.882;2024-03-02T07:12:18;4.18;;;1.10;;
68614;SDS011;55593;51.994;5.882;2024-03-02T07:14:50;4.65;;;1.55;;
68614;SDS011;55593;51.994;5.882;2024-03-02T07:17:38;3.63;;;0.90;;
68614;SDS011;55593;51.994;5.882;2024-03-02T07:20:08;5.43;;;1.60;;
68614;SDS011;55593;51.994;5.882;2024-03-02T07:22:39;4.25;;;1.15;;
68614;SDS011;55593;51.994;5.882;2024-03-02T07:25:09;2.40;;;0.90;;
68614;SDS011;55593;51.994;5.882;2024-03-02T07:27:38;3.80;;;1.00;;
68614;SDS011;55593;51.994;5.882;2024-03-02T07:30:14;2.75;;;0.88;;
68614;SDS011;55593;51.994;5.882;2024-03-02T07:32:49;4.45;;;1.17;;
68614;SDS011;55593;51.994;5.882;2024-03-02T07:35:18;3.90;;;1.20;;
68614;SDS011;55593;51.994;5.882;2024-03-02T07:37:48;2.70;;;1.15;;
68614;SDS011;55593;51.994;5.882;2024-03-02T07:40:17;3.95;;;1.10;;
68614;SDS011;55593;51.994;5.882;2024-03-02T07:42:46;4.50;;;1.38;;
68614;SDS011;55593;51.994;5.882;2024-03-02T07:45:15;2.78;;;1.10;;
68614;SDS011;55593;51.994;5.882;2024-03-02T07:47:47;3.05;;;1.27;;
68614;SDS011;55593;51.994;5.882;2024-03-02T07:50:16;3.97;;;0.98;;
68614;SDS011;55593;51.994;5.882;2024-03-02T07:52:46;3.45;;;1.98;;
68614;SDS011;55593;51.994;5.882;2024-03-02T07:55:15;5.43;;;1.30;;
68614;SDS011;55593;51.994;5.882;2024-03-02T07:57:44;3.15;;;1.20;;
68614;SDS011;55593;51.994;5.882;2024-03-02T08:00:13;4.25;;;1.40;;
68614;SDS011;55593;51.994;5.882;2024-03-02T08:02:43;6.25;;;2.15;;
68614;SDS011;55593;51.994;5.882;2024-03-02T08:05:15;4.90;;;1.13;;
68614;SDS011;55593;51.994;5.882;2024-03-02T08:07:45;3.72;;;1.20;;
68614;SDS011;55593;51.994;5.882;2024-03-02T08:10:18;5.15;;;1.60;;
68614;SDS011;55593;51.994;5.882;2024-03-02T08:12:47;2.58;;;1.30;;
68614;SDS011;55593;51.994;5.882;2024-03-02T08:15:16;2.33;;;1.10;;
68614;SDS011;55593;51.994;5.882;2024-03-02T08:17:46;6.00;;;1.90;;
68614;SDS011;55593;51.994;5.882;2024-03-02T08:20:18;3.33;;;1.15;;
68614;SDS011;55593;51.994;5.882;2024-03-02T08:22:47;3.33;;;1.23;;
68614;SDS011;55593;51.994;5.882;2024-03-02T08:25:16;4.72;;;1.85;;
68614;SDS011;55593;51.994;5.882;2024-03-02T08:27:46;4.00;;;1.10;;
68614;SDS011;55593;51.994;5.882;2024-03-02T08:30:15;4.07;;;1.00;;
68614;SDS011;55593;51.994;5.882;2024-03-02T08:32:44;6.95;;;1.27;;
68614;SDS011;55593;51.994;5.882;2024-03-02T08:35:13;4.80;;;1.35;;
68614;SDS011;55593;51.994;5.882;2024-03-02T08:37:45;4.05;;;1.20;;
68614;SDS011;55593;51.994;5.882;2024-03-02T08:40:14;3.40;;;1.10;;
68614;SDS011;55593;51.994;5.882;2024-03-02T08:42:43;2.92;;;1.00;;
68614;SDS011;55593;51.994;5.882;2024-03-02T08:45:13;7.63;;;1.27;;
68614;SDS011;55593;51.994;5.882;2024-03-02T08:47:46;3.58;;;1.27;;
68614;SDS011;55593;51.994;5.882;2024-03-02T08:50:15;5.65;;;1.35;;
68614;SDS011;55593;51.994;5.882;2024-03-02T08:52:47;4.57;;;1.17;;
68614;SDS011;55593;51.994;5.882;2024-03-02T08:55:19;6.53;;;1.17;;
68614;SDS011;55593;51.994;5.882;2024-03-02T08:57:48;2.88;;;1.10;;
68614;SDS011;55593;51.994;5.882;2024-03-02T09:00:17;6.28;;;1.08;;
68614;SDS011;55593;51.994;5.882;2024-03-02T09:02:47;6.78;;;1.63;;
68614;SDS011;55593;51.994;5.882;2024-03-02T09:05:19;5.07;;;1.40;;
68614;SDS011;55593;51.994;5.882;2024-03-02T09:07:55;4.50;;;1.40;;
68614;SDS011;55593;51.994;5.882;2024-03-02T09:10:26;7.03;;;1.33;;
68614;SDS011;55593;51.994;5.882;2024-03-02T09:12:55;9.98;;;1.40;;
68614;SDS011;55593;51.994;5.882;2024-03-02T09:15:25;2.45;;;1.10;;
68614;SDS011;55593;51.994;5.882;2024-03-02T09:17:54;2.60;;;1.20;;
68614;SDS011;55593;51.994;5.882;2024-03-02T09:20:23;9.93;;;1.70;;
68614;SDS011;55593;51.994;5.882;2024-03-02T09:22:55;6.85;;;1.27;;
68614;SDS011;55593;51.994;5.882;2024-03-02T09:25:24;3.88;;;1.45;;
68614;SDS011;55593;51.994;5.882;2024-03-02T09:27:53;5.45;;;1.40;;
68614;SDS011;55593;51.994;5.882;2024-03-02T09:30:23;5.85;;;2.53;;
68614;SDS011;55593;51.994;5.882;2024-03-02T09:32:52;3.53;;;1.33;;
68614;SDS011;55593;51.994;5.882;2024-03-02T09:35:21;4.47;;;1.10;;
68614;SDS011;55593;51.994;5.882;2024-03-02T09:37:56;6.57;;;1.70;;
68614;SDS011;55593;51.994;5.882;2024-03-02T09:40:25;2.97;;;1.42;;
68614;SDS011;55593;51.994;5.882;2024-03-02T09:42:54;2.05;;;1.00;;
68614;SDS011;55593;51.994;5.882;2024-03-02T09:45:24;4.18;;;1.20;;
68614;SDS011;55593;51.994;5.882;2024-03-02T09:47:54;4.47;;;1.60;;
68614;SDS011;55593;51.994;5.882;2024-03-02T09:50:23;3.75;;;1.40;;
68614;SDS011;55593;51.994;5.882;2024-03-02T09:52:55;4.93;;;1.90;;
68614;SDS011;55593;51.994;5.882;2024-03-02T09:55:25;6.30;;;1.42;;
68614;SDS011;55593;51.994;5.882;2024-03-02T09:57:54;8.13;;;1.58;;
68614;SDS011;55593;51.994;5.882;2024-03-02T10:00:23;5.13;;;1.20;;
68614;SDS011;55593;51.994;5.882;2024-03-02T10:02:52;7.88;;;1.40;;
68614;SDS011;55593;51.994;5.882;2024-03-02T10:05:24;4.40;;;1.10;;
68614;SDS011;55593;51.994;5.882;2024-03-02T10:08:04;5.95;;;1.45;;
68614;SDS011;55593;51.994;5.882;2024-03-02T10:10:35;3.35;;;1.30;;
68614;SDS011;55593;51.994;5.882;2024-03-02T10:13:09;5.35;;;1.58;;
68614;SDS011;55593;51.994;5.882;2024-03-02T10:15:40;5.82;;;1.42;;
68614;SDS011;55593;51.994;5.882;2024-03-02T10:18:10;3.72;;;1.35;;
68614;SDS011;55593;51.994;5.882;2024-03-02T10:20:43;7.53;;;1.13;;
68614;SDS011;55593;51.994;5.882;2024-03-02T10:23:17;5.38;;;1.20;;
68614;SDS011;55593;51.994;5.882;2024-03-02T10:25:53;3.83;;;1.38;;
68614;SDS011;55593;51.994;5.882;2024-03-02T10:28:22;4.47;;;1.23;;
68614;SDS011;55593;51.994;5.882;2024-03-02T10:30:53;7.03;;;1.52;;
68614;SDS011;55593;51.994;5.882;2024-03-02T10:33:23;6.53;;;1.35;;
68614;SDS011;55593;51.994;5.882;2024-03-02T10:35:53;6.35;;;1.30;;
68614;SDS011;55593;51.994;5.882;2024-03-02T10:38:24;6.57;;;1.60;;
68614;SDS011;55593;51.994;5.882;2024-03-02T10:40:53;3.75;;;1.20;;
68614;SDS011;55593;51.994;5.882;2024-03-02T10:43:24;8.60;;;2.05;;
68614;SDS011;55593;51.994;5.882;2024-03-02T10:45:54;4.50;;;1.25;;
68614;SDS011;55593;51.994;5.882;2024-03-02T10:48:32;4.32;;;1.20;;
68614;SDS011;55593;51.994;5.882;2024-03-02T10:51:08;6.82;;;1.52;;
68614;SDS011;55593;51.994;5.882;2024-03-02T10:54:25;7.93;;;1.58;;
68614;SDS011;55593;51.994;5.882;2024-03-02T10:57:02;6.72;;;1.30;;
68614;SDS011;55593;51.994;5.882;2024-03-02T11:05:44;5.22;;;1.20;;
68614;SDS011;55593;51.994;5.882;2024-03-02T11:08:26;3.42;;;1.10;;
68614;SDS011;55593;51.994;5.882;2024-03-02T11:17:04;2.92;;;1.05;;
68614;SDS011;55593;51.994;5.882;2024-03-02T11:20:03;2.78;;;0.88;;
68614;SDS011;55593;51.994;5.882;2024-03-02T11:22:46;5.32;;;1.20;;
68614;SDS011;55593;51.994;5.882;2024-03-02T11:25:31;8.23;;;1.20;;
68614;SDS011;55593;51.994;5.882;2024-03-02T11:28:15;6.38;;;1.40;;
68614;SDS011;55593;51.994;5.882;2024-03-02T11:31:05;3.83;;;1.20;;
68614;SDS011;55593;51.994;5.882;2024-03-02T11:33:51;4.28;;;1.23;;
68614;SDS011;55593;51.994;5.882;2024-03-02T11:36:20;3.88;;;1.40;;
68614;SDS011;55593;51.994;5.882;2024-03-02T11:38:49;4.75;;;1.23;;
68614;SDS011;55593;51.994;5.882;2024-03-02T11:41:19;3.35;;;1.25;;
68614;SDS011;55593;51.994;5.882;2024-03-02T11:43:52;3.40;;;1.33;;
68614;SDS011;55593;51.994;5.882;2024-03-02T11:46:23;6.00;;;1.48;;
68614;SDS011;55593;51.994;5.882;2024-03-02T11:48:57;7.32;;;1.45;;
68614;SDS011;55593;51.994;5.882;2024-03-02T11:51:27;4.07;;;1.10;;
68614;SDS011;55593;51.994;5.882;2024-03-02T11:53:58;5.75;;;1.10;;
68614;SDS011;55593;51.994;5.882;2024-03-02T11:56:28;5.75;;;1.10;;
68614;SDS011;55593;51.994;5.882;2024-03-02T11:59:02;4.10;;;1.38;;
68614;SDS011;55593;51.994;5.882;2024-03-02T12:01:34;5.18;;;1.20;;
68614;SDS011;55593;51.994;5.882;2024-03-02T12:04:04;5.55;;;1.15;;
68614;SDS011;55593;51.994;5.882;2024-03-02T12:06:34;6.95;;;2.75;;
68614;SDS011;55593;51.994;5.882;2024-03-02T12:09:07;5.90;;;1.33;;
68614;SDS011;55593;51.994;5.882;2024-03-02T12:11:40;4.53;;;1.00;;
68614;SDS011;55593;51.994;5.882;2024-03-02T12:14:13;4.57;;;1.27;;
68614;SDS011;55593;51.994;5.882;2024-03-02T12:16:43;4.22;;;1.25;;
68614;SDS011;55593;51.994;5.882;2024-03-02T12:19:13;7.78;;;1.20;;
68614;SDS011;55593;51.994;5.882;2024-03-02T12:21:43;7.10;;;1.35;;
68614;SDS011;55593;51.994;5.882;2024-03-02T12:24:12;6.43;;;1.65;;
68614;SDS011;55593;51.994;5.882;2024-03-02T12:26:41;4.85;;;1.30;;
68614;SDS011;55593;51.994;5.882;2024-03-02T12:29:13;4.80;;;1.60;;
68614;SDS011;55593;51.994;5.882;2024-03-02T12:31:42;4.53;;;1.00;;
68614;SDS011;55593;51.994;5.882;2024-03-02T12:34:12;3.60;;;1.10;;
68614;SDS011;55593;51.994;5.882;2024-03-02T12:36:42;3.83;;;0.90;;
68614;SDS011;55593;51.994;5.882;2024-03-02T12:39:15;2.95;;;1.00;;
68614;SDS011;55593;51.994;5.882;2024-03-02T12:41:45;6.13;;;1.27;;
68614;SDS011;55593;51.994;5.882;2024-03-02T12:44:19;3.83;;;1.00;;
68614;SDS011;55593;51.994;5.882;2024-03-02T12:46:48;3.50;;;1.05;;
68614;SDS011;55593;51.994;5.882;2024-03-02T12:49:21;3.50;;;1.33;;
68614;SDS011;55593;51.994;5.882;2024-03-02T12:51:52;4.57;;;1.77;;
68614;SDS011;55593;51.994;5.882;2024-03-02T12:54:23;5.70;;;2.10;;
68614;SDS011;55593;51.994;5.882;2024-03-02T12:56:53;3.00;;;1.38;;
68614;SDS011;55593;51.994;5.882;2024-03-02T12:59:25;5.63;;;1.33;;
68614;SDS011;55593;51.994;5.882;2024-03-02T13:01:55;3.75;;;1.13;;
68614;SDS011;55593;51.994;5.882;2024-03-02T13:04:27;6.90;;;1.85;;
68614;SDS011;55593;51.994;5.882;2024-03-02T13:06:57;4.25;;;1.40;;
68614;SDS011;55593;51.994;5.882;2024-03-02T13:09:28;3.15;;;1.10;;
68614;SDS011;55593;51.994;5.882;2024-03-02T13:11:59;6.00;;;1.30;;
68614;SDS011;55593;51.994;5.882;2024-03-02T13:14:35;4.30;;;1.10;;
68614;SDS011;55593;51.994;5.882;2024-03-02T13:17:04;4.60;;;1.20;;
68614;SDS011;55593;51.994;5.882;2024-03-02T13:19:33;5.68;;;1.35;;
68614;SDS011;55593;51.994;5.882;2024-03-02T13:22:03;3.25;;;1.27;;
68614;SDS011;55593;51.994;5.882;2024-03-02T13:24:32;4.15;;;1.55;;
68614;SDS011;55593;51.994;5.882;2024-03-02T13:27:02;8.45;;;1.60;;
68614;SDS011;55593;51.994;5.882;2024-03-02T13:29:35;3.13;;;1.55;;
68614;SDS011;55593;51.994;5.882;2024-03-02T13:32:04;6.28;;;2.17;;
68614;SDS011;55593;51.994;5.882;2024-03-02T13:34:35;3.28;;;1.50;;
68614;SDS011;55593;51.994;5.882;2024-03-02T13:37:04;6.20;;;1.70;;
68614;SDS011;55593;51.994;5.882;2024-03-02T13:39:34;4.95;;;1.50;;
68614;SDS011;55593;51.994;5.882;2024-03-02T13:42:06;4.35;;;2.00;;
68614;SDS011;55593;51.994;5.882;2024-03-02T13:44:38;6.38;;;1.80;;
68614;SDS011;55593;51.994;5.882;2024-03-02T13:47:10;3.83;;;1.52;;
68614;SDS011;55593;51.994;5.882;2024-03-02T13:49:42;4.53;;;1.42;;
68614;SDS011;55593;51.994;5.882;2024-03-02T13:52:13;4.68;;;1.50;;
68614;SDS011;55593;51.994;5.882;2024-03-02T13:54:43;4.18;;;1.95;;
68614;SDS011;55593;51.994;5.882;2024-03-02T13:57:21;6.03;;;1.90;;
68614;SDS011;55593;51.994;5.882;2024-03-02T13:59:53;4.30;;;1.55;;
68614;SDS011;55593;51.994;5.882;2024-03-02T14:02:22;5.07;;;1.50;;
68614;SDS011;55593;51.994;5.882;2024-03-02T14:04:51;4.53;;;1.60;;
68614;SDS011;55593;51.994;5.882;2024-03-02T14:07:20;3.65;;;1.25;;
68614;SDS011;55593;51.994;5.882;2024-03-02T14:09:50;4.93;;;1.70;;
68614;SDS011;55593;51.994;5.882;2024-03-02T14:12:23;6.15;;;1.77;;
68614;SDS011;55593;51.994;5.882;2024-03-02T14:14:54;3.72;;;1.25;;
68614;SDS011;55593;51.994;5.882;2024-03-02T14:17:24;3.08;;;1.00;;
68614;SDS011;55593;51.994;5.882;2024-03-02T14:19:53;5.00;;;1.70;;
68614;SDS011;55593;51.994;5.882;2024-03-02T14:22:22;5.55;;;1.38;;
68614;SDS011;55593;51.994;5.882;2024-03-02T14:24:52;3.50;;;1.25;;
68614;SDS011;55593;51.994;5.882;2024-03-02T14:27:21;3.80;;;1.13;;
68614;SDS011;55593;51.994;5.882;2024-03-02T14:29:54;8.85;;;1.45;;
68614;SDS011;55593;51.994;5.882;2024-03-02T14:32:23;3.88;;;1.35;;
68614;SDS011;55593;51.994;5.882;2024-03-02T14:34:52;6.25;;;1.38;;
68614;SDS011;55593;51.994;5.882;2024-03-02T14:37:23;6.60;;;1.52;;
68614;SDS011;55593;51.994;5.882;2024-03-02T14:39:52;7.28;;;1.27;;
68614;SDS011;55593;51.994;5.882;2024-03-02T14:42:22;5.78;;;1.15;;
68614;SDS011;55593;51.994;5.882;2024-03-02T14:44:57;3.42;;;1.20;;
68614;SDS011;55593;51.994;5.882;2024-03-02T14:47:29;3.97;;;1.10;;
68614;SDS011;55593;51.994;5.882;2024-03-02T14:50:00;3.35;;;1.20;;
68614;SDS011;55593;51.994;5.882;2024-03-02T14:52:32;7.25;;;1.60;;
68614;SDS011;55593;51.994;5.882;2024-03-02T14:55:01;3.75;;;1.55;;
68614;SDS011;55593;51.994;5.882;2024-03-02T14:57:33;6.40;;;1.40;;
68614;SDS011;55593;51.994;5.882;2024-03-02T15:00:05;4.72;;;1.33;;
68614;SDS011;55593;51.994;5.882;2024-03-02T15:02:37;6.10;;;1.65;;
68614;SDS011;55593;51.994;5.882;2024-03-02T15:05:08;6.10;;;1.58;;
68614;SDS011;55593;51.994;5.882;2024-03-02T15:07:37;3.42;;;1.33;;
68614;SDS011;55593;51.994;5.882;2024-03-02T15:10:07;7.60;;;1.67;;
68614;SDS011;55593;51.994;5.882;2024-03-02T15:12:36;4.20;;;1.80;;
68614;SDS011;55593;51.994;5.882;2024-03-02T15:15:08;5.32;;;1.35;;
68614;SDS011;55593;51.994;5.882;2024-03-02T15:17:38;3.15;;;1.38;;
68614;SDS011;55593;51.994;5.882;2024-03-02T15:20:08;5.68;;;2.08;;
68614;SDS011;55593;51.994;5.882;2024-03-02T15:22:37;4.18;;;1.23;;
68614;SDS011;55593;51.994;5.882;2024-03-02T15:25:07;5.32;;;1.33;;
68614;SDS011;55593;51.994;5.882;2024-03-02T15:27:36;4.88;;;1.40;;
68614;SDS011;55593;51.994;5.882;2024-03-02T15:30:08;3.88;;;1.30;;
68614;SDS011;55593;51.994;5.882;2024-03-02T15:32:38;4.80;;;1.42;;
68614;SDS011;55593;51.994;5.882;2024-03-02T15:35:07;5.10;;;1.65;;
68614;SDS011;55593;51.994;5.882;2024-03-02T15:37:36;5.90;;;1.50;;
68614;SDS011;55593;51.994;5.882;2024-03-02T15:40:06;8.07;;;1.50;;
68614;SDS011;55593;51.994;5.882;2024-03-02T15:42:37;5.03;;;1.70;;